sensor_id;sensor_type;location;lat;lon;timestamp;P1;durP1;ratioP1;P2;durP2;ratioP2
20146;SDS011;10234;50.856;15.716;2022-11-20T00:01:27;35.23;;;16.77;;
20146;SDS011;10234;50.856;15.716;2022-11-20T00:03:55;41.47;;;17.83;;
20146;SDS011;10234;50.856;15.716;2022-11-20T00:06:22;37.27;;;16.57;;
20146;SDS011;10234;50.856;15.716;2022-11-20T00:08:50;33.63;;;15.43;;
20146;SDS011;10234;50.856;15.716;2022-11-20T00:11:18;38.00;;;17.30;;
20146;SDS011;10234;50.856;15.716;2022-11-20T00:13:45;22.10;;;11.13;;
20146;SDS011;10234;50.856;15.716;2022-11-20T00:16:14;19.53;;;9.43;;
20146;SDS011;10234;50.856;15.716;2022-11-20T00:18:44;19.70;;;11.33;;
20146;SDS011;10234;50.856;15.716;2022-11-20T00:21:12;25.13;;;10.23;;
20146;SDS011;10234;50.856;15.716;2022-11-20T00:23:40;21.90;;;10.70;;
20146;SDS011;10234;50.856;15.716;2022-11-20T00:26:08;31.77;;;12.73;;
20146;SDS011;10234;50.856;15.716;2022-11-20T00:28:36;21.23;;;10.20;;
20146;SDS011;10234;50.856;15.716;2022-11-20T00:31:03;18.07;;;9.70;;
20146;SDS011;10234;50.856;15.716;2022-11-20T00:33:32;14.53;;;8.60;;
20146;SDS011;10234;50.856;15.716;2022-11-20T00:36:00;15.73;;;8.60;;
20146;SDS011;10234;50.856;15.716;2022-11-20T00:38:28;15.60;;;8.93;;
20146;SDS011;10234;50.856;15.716;2022-11-20T00:40:56;19.53;;;9.43;;
20146;SDS011;10234;50.856;15.716;2022-11-20T00:43:23;16.90;;;9.47;;
20146;SDS011;10234;50.856;15.716;2022-11-20T00:45:50;17.43;;;8.53;;
20146;SDS011;10234;50.856;15.716;2022-11-20T00:48:17;14.70;;;8.00;;
20146;SDS011;10234;50.856;15.716;2022-11-20T00:50:44;19.57;;;9.20;;
20146;SDS011;10234;50.856;15.716;2022-11-20T00:53:13;17.40;;;9.77;;
20146;SDS011;10234;50.856;15.716;2022-11-20T00:55:40;15.90;;;8.53;;
20146;SDS011;10234;50.856;15.716;2022-11-20T00:58:07;12.47;;;7.50;;
20146;SDS011;10234;50.856;15.716;2022-11-20T01:00:34;19.43;;;8.03;;
20146;SDS011;10234;50.856;15.716;2022-11-20T01:03:02;16.70;;;9.43;;
20146;SDS011;10234;50.856;15.716;2022-11-20T01:05:29;19.13;;;7.33;;
20146;SDS011;10234;50.856;15.716;2022-11-20T01:07:56;11.03;;;7.10;;
20146;SDS011;10234;50.856;15.716;2022-11-20T01:10:24;13.37;;;6.17;;
20146;SDS011;10234;50.856;15.716;2022-11-20T01:12:51;11.73;;;6.47;;
20146;SDS011;10234;50.856;15.716;2022-11-20T01:15:38;16.10;;;7.37;;
20146;SDS011;10234;50.856;15.716;2022-11-20T01:18:05;13.93;;;6.63;;
20146;SDS011;10234;50.856;15.716;2022-11-20T01:20:33;14.73;;;8.47;;
20146;SDS011;10234;50.856;15.716;2022-11-20T01:23:01;15.13;;;7.33;;
20146;SDS011;10234;50.856;15.716;2022-11-20T01:25:30;19.20;;;7.47;;
20146;SDS011;10234;50.856;15.716;2022-11-20T01:27:57;18.47;;;8.43;;
20146;SDS011;10234;50.856;15.716;2022-11-20T01:30:24;20.87;;;9.03;;
20146;SDS011;10234;50.856;15.716;2022-11-20T01:32:51;18.53;;;9.73;;
20146;SDS011;10234;50.856;15.716;2022-11-20T01:35:18;20.60;;;9.83;;
20146;SDS011;10234;50.856;15.716;2022-11-20T01:37:45;20.30;;;9.63;;
20146;SDS011;10234;50.856;15.716;2022-11-20T01:40:12;18.33;;;9.37;;
20146;SDS011;10234;50.856;15.716;2022-11-20T01:42:45;22.63;;;10.37;;
20146;SDS011;10234;50.856;15.716;2022-11-20T01:48:28;15.20;;;6.97;;
20146;SDS011;10234;50.856;15.716;2022-11-20T01:50:59;10.80;;;6.73;;
20146;SDS011;10234;50.856;15.716;2022-11-20T01:53:28;17.13;;;8.20;;
20146;SDS011;10234;50.856;15.716;2022-11-20T01:55:58;22.57;;;10.70;;
20146;SDS011;10234;50.856;15.716;2022-11-20T01:58:30;28.63;;;13.60;;
20146;SDS011;10234;50.856;15.716;2022-11-20T02:00:59;30.63;;;13.27;;
20146;SDS011;10234;50.856;15.716;2022-11-20T02:03:26;23.13;;;11.77;;
20146;SDS011;10234;50.856;15.716;2022-11-20T02:05:55;21.77;;;11.63;;
20146;SDS011;10234;50.856;15.716;2022-11-20T02:08:27;17.30;;;9.30;;
20146;SDS011;10234;50.856;15.716;2022-11-20T02:10:54;17.73;;;9.57;;
20146;SDS011;10234;50.856;15.716;2022-11-20T02:13:22;16.87;;;8.43;;
20146;SDS011;10234;50.856;15.716;2022-11-20T02:16:09;13.57;;;7.53;;
20146;SDS011;10234;50.856;15.716;2022-11-20T02:18:37;17.03;;;8.67;;
20146;SDS011;10234;50.856;15.716;2022-11-20T02:21:06;24.07;;;9.57;;
20146;SDS011;10234;50.856;15.716;2022-11-20T02:23:39;21.67;;;9.97;;
20146;SDS011;10234;50.856;15.716;2022-11-20T02:26:12;21.90;;;11.47;;
20146;SDS011;10234;50.856;15.716;2022-11-20T02:28:41;30.17;;;13.57;;
20146;SDS011;10234;50.856;15.716;2022-11-20T02:31:08;25.57;;;13.37;;
20146;SDS011;10234;50.856;15.716;2022-11-20T02:33:35;35.63;;;16.47;;
20146;SDS011;10234;50.856;15.716;2022-11-20T02:36:02;31.63;;;15.10;;
20146;SDS011;10234;50.856;15.716;2022-11-20T02:38:30;29.43;;;14.90;;
20146;SDS011;10234;50.856;15.716;2022-11-20T02:40:57;25.50;;;13.77;;
20146;SDS011;10234;50.856;15.716;2022-11-20T02:43:25;27.73;;;14.23;;
20146;SDS011;10234;50.856;15.716;2022-11-20T02:45:52;29.60;;;14.80;;
20146;SDS011;10234;50.856;15.716;2022-11-20T02:48:19;32.87;;;14.73;;
20146;SDS011;10234;50.856;15.716;2022-11-20T02:50:47;28.10;;;13.63;;
20146;SDS011;10234;50.856;15.716;2022-11-20T02:53:14;29.63;;;15.03;;
20146;SDS011;10234;50.856;15.716;2022-11-20T02:55:41;22.77;;;10.87;;
20146;SDS011;10234;50.856;15.716;2022-11-20T02:58:08;15.83;;;8.83;;
20146;SDS011;10234;50.856;15.716;2022-11-20T03:00:36;22.57;;;10.47;;
20146;SDS011;10234;50.856;15.716;2022-11-20T03:03:03;17.63;;;8.60;;
20146;SDS011;10234;50.856;15.716;2022-11-20T03:05:30;15.70;;;8.47;;
20146;SDS011;10234;50.856;15.716;2022-11-20T03:07:57;11.83;;;6.50;;
20146;SDS011;10234;50.856;15.716;2022-11-20T03:10:24;11.40;;;6.10;;
20146;SDS011;10234;50.856;15.716;2022-11-20T03:12:52;14.57;;;7.33;;
20146;SDS011;10234;50.856;15.716;2022-11-20T03:15:20;13.37;;;8.30;;
20146;SDS011;10234;50.856;15.716;2022-11-20T03:17:52;13.67;;;7.33;;
20146;SDS011;10234;50.856;15.716;2022-11-20T03:20:20;20.70;;;8.07;;
20146;SDS011;10234;50.856;15.716;2022-11-20T03:22:47;14.07;;;7.40;;
20146;SDS011;10234;50.856;15.716;2022-11-20T03:25:14;14.60;;;6.33;;
20146;SDS011;10234;50.856;15.716;2022-11-20T03:27:41;16.73;;;7.43;;
20146;SDS011;10234;50.856;15.716;2022-11-20T03:30:09;12.47;;;7.80;;
20146;SDS011;10234;50.856;15.716;2022-11-20T03:32:36;14.70;;;7.53;;
20146;SDS011;10234;50.856;15.716;2022-11-20T03:35:05;20.13;;;9.17;;
20146;SDS011;10234;50.856;15.716;2022-11-20T03:37:32;16.87;;;7.50;;
20146;SDS011;10234;50.856;15.716;2022-11-20T03:39:59;9.37;;;5.87;;
20146;SDS011;10234;50.856;15.716;2022-11-20T03:42:27;11.37;;;6.83;;
20146;SDS011;10234;50.856;15.716;2022-11-20T03:45:12;11.07;;;6.93;;
20146;SDS011;10234;50.856;15.716;2022-11-20T03:47:40;12.30;;;6.93;;
20146;SDS011;10234;50.856;15.716;2022-11-20T03:50:10;10.50;;;6.23;;
20146;SDS011;10234;50.856;15.716;2022-11-20T03:52:38;9.50;;;6.00;;
20146;SDS011;10234;50.856;15.716;2022-11-20T03:55:06;15.63;;;7.87;;
20146;SDS011;10234;50.856;15.716;2022-11-20T03:57:33;15.83;;;7.53;;
20146;SDS011;10234;50.856;15.716;2022-11-20T04:00:00;13.97;;;6.43;;
20146;SDS011;10234;50.856;15.716;2022-11-20T04:02:28;11.87;;;6.63;;
20146;SDS011;10234;50.856;15.716;2022-11-20T04:04:55;11.13;;;7.33;;
20146;SDS011;10234;50.856;15.716;2022-11-20T04:07:23;16.83;;;7.57;;
20146;SDS011;10234;50.856;15.716;2022-11-20T04:09:50;15.67;;;7.70;;
20146;SDS011;10234;50.856;15.716;2022-11-20T04:12:17;14.50;;;8.20;;
20146;SDS011;10234;50.856;15.716;2022-11-20T04:14:44;19.20;;;8.23;;
20146;SDS011;10234;50.856;15.716;2022-11-20T04:17:12;16.80;;;9.27;;
20146;SDS011;10234;50.856;15.716;2022-11-20T04:19:39;19.73;;;9.90;;
20146;SDS011;10234;50.856;15.716;2022-11-20T04:22:06;23.17;;;11.07;;
20146;SDS011;10234;50.856;15.716;2022-11-20T04:24:34;20.73;;;11.40;;
20146;SDS011;10234;50.856;15.716;2022-11-20T04:27:02;23.67;;;10.47;;
20146;SDS011;10234;50.856;15.716;2022-11-20T04:29:29;19.77;;;9.97;;
20146;SDS011;10234;50.856;15.716;2022-11-20T04:31:56;21.77;;;10.40;;
20146;SDS011;10234;50.856;15.716;2022-11-20T04:34:23;19.23;;;11.50;;
20146;SDS011;10234;50.856;15.716;2022-11-20T04:36:50;26.47;;;10.60;;
20146;SDS011;10234;50.856;15.716;2022-11-20T04:39:17;18.87;;;9.37;;
20146;SDS011;10234;50.856;15.716;2022-11-20T04:41:46;21.97;;;11.00;;
20146;SDS011;10234;50.856;15.716;2022-11-20T04:44:13;22.73;;;12.30;;
20146;SDS011;10234;50.856;15.716;2022-11-20T04:46:41;21.53;;;10.23;;
20146;SDS011;10234;50.856;15.716;2022-11-20T04:49:08;23.63;;;10.97;;
20146;SDS011;10234;50.856;15.716;2022-11-20T04:51:35;24.43;;;11.03;;
20146;SDS011;10234;50.856;15.716;2022-11-20T04:54:03;25.63;;;11.07;;
20146;SDS011;10234;50.856;15.716;2022-11-20T04:56:30;23.40;;;11.30;;
20146;SDS011;10234;50.856;15.716;2022-11-20T04:59:01;22.47;;;10.10;;
20146;SDS011;10234;50.856;15.716;2022-11-20T05:01:28;41.60;;;16.60;;
20146;SDS011;10234;50.856;15.716;2022-11-20T05:03:55;22.67;;;12.50;;
20146;SDS011;10234;50.856;15.716;2022-11-20T05:06:22;26.93;;;11.37;;
20146;SDS011;10234;50.856;15.716;2022-11-20T05:08:49;28.80;;;11.60;;
20146;SDS011;10234;50.856;15.716;2022-11-20T05:11:17;29.20;;;11.77;;
20146;SDS011;10234;50.856;15.716;2022-11-20T05:13:45;21.03;;;10.47;;
20146;SDS011;10234;50.856;15.716;2022-11-20T05:16:14;17.97;;;8.47;;
20146;SDS011;10234;50.856;15.716;2022-11-20T05:18:42;16.90;;;9.23;;
20146;SDS011;10234;50.856;15.716;2022-11-20T05:21:10;18.20;;;8.80;;
20146;SDS011;10234;50.856;15.716;2022-11-20T05:23:37;20.73;;;8.67;;
20146;SDS011;10234;50.856;15.716;2022-11-20T05:26:05;15.47;;;7.53;;
20146;SDS011;10234;50.856;15.716;2022-11-20T05:28:32;16.13;;;8.53;;
20146;SDS011;10234;50.856;15.716;2022-11-20T05:31:03;20.53;;;10.60;;
20146;SDS011;10234;50.856;15.716;2022-11-20T05:33:33;12.83;;;7.23;;
20146;SDS011;10234;50.856;15.716;2022-11-20T05:36:01;17.10;;;8.33;;
20146;SDS011;10234;50.856;15.716;2022-11-20T05:38:28;12.50;;;7.67;;
20146;SDS011;10234;50.856;15.716;2022-11-20T05:41:02;8.93;;;5.87;;
20146;SDS011;10234;50.856;15.716;2022-11-20T05:43:31;12.17;;;5.97;;
20146;SDS011;10234;50.856;15.716;2022-11-20T05:45:58;14.53;;;7.33;;
20146;SDS011;10234;50.856;15.716;2022-11-20T05:48:25;14.23;;;7.63;;
20146;SDS011;10234;50.856;15.716;2022-11-20T05:50:54;16.03;;;8.90;;
20146;SDS011;10234;50.856;15.716;2022-11-20T05:53:21;18.77;;;9.53;;
20146;SDS011;10234;50.856;15.716;2022-11-20T05:55:55;19.87;;;8.90;;
20146;SDS011;10234;50.856;15.716;2022-11-20T05:58:22;20.53;;;8.90;;
20146;SDS011;10234;50.856;15.716;2022-11-20T06:00:50;18.73;;;9.43;;
20146;SDS011;10234;50.856;15.716;2022-11-20T06:03:17;20.33;;;10.50;;
20146;SDS011;10234;50.856;15.716;2022-11-20T06:05:44;14.50;;;7.53;;
20146;SDS011;10234;50.856;15.716;2022-11-20T06:08:12;10.97;;;6.13;;
20146;SDS011;10234;50.856;15.716;2022-11-20T06:10:39;11.87;;;6.17;;
20146;SDS011;10234;50.856;15.716;2022-11-20T06:13:06;19.30;;;8.80;;
20146;SDS011;10234;50.856;15.716;2022-11-20T06:15:34;17.67;;;7.90;;
20146;SDS011;10234;50.856;15.716;2022-11-20T06:18:01;17.37;;;9.10;;
20146;SDS011;10234;50.856;15.716;2022-11-20T06:20:28;21.90;;;8.83;;
20146;SDS011;10234;50.856;15.716;2022-11-20T06:22:55;33.90;;;9.80;;
20146;SDS011;10234;50.856;15.716;2022-11-20T06:25:23;24.30;;;12.20;;
20146;SDS011;10234;50.856;15.716;2022-11-20T06:27:50;22.10;;;11.70;;
20146;SDS011;10234;50.856;15.716;2022-11-20T06:30:17;17.63;;;8.97;;
20146;SDS011;10234;50.856;15.716;2022-11-20T06:32:44;23.07;;;9.47;;
20146;SDS011;10234;50.856;15.716;2022-11-20T06:35:11;16.77;;;7.53;;
20146;SDS011;10234;50.856;15.716;2022-11-20T06:37:39;15.97;;;7.73;;
20146;SDS011;10234;50.856;15.716;2022-11-20T06:40:06;18.20;;;8.40;;
20146;SDS011;10234;50.856;15.716;2022-11-20T06:42:35;19.33;;;8.47;;
20146;SDS011;10234;50.856;15.716;2022-11-20T06:45:02;14.97;;;6.90;;
20146;SDS011;10234;50.856;15.716;2022-11-20T06:47:29;18.27;;;9.63;;
20146;SDS011;10234;50.856;15.716;2022-11-20T06:49:56;18.63;;;8.20;;
20146;SDS011;10234;50.856;15.716;2022-11-20T06:52:23;14.57;;;7.80;;
20146;SDS011;10234;50.856;15.716;2022-11-20T06:54:51;18.33;;;8.30;;
20146;SDS011;10234;50.856;15.716;2022-11-20T06:57:18;15.33;;;7.77;;
20146;SDS011;10234;50.856;15.716;2022-11-20T06:59:46;24.13;;;10.90;;
20146;SDS011;10234;50.856;15.716;2022-11-20T07:02:13;19.33;;;9.37;;
20146;SDS011;10234;50.856;15.716;2022-11-20T07:04:40;22.70;;;10.40;;
20146;SDS011;10234;50.856;15.716;2022-11-20T07:07:08;26.77;;;10.30;;
20146;SDS011;10234;50.856;15.716;2022-11-20T07:09:35;22.80;;;8.80;;
20146;SDS011;10234;50.856;15.716;2022-11-20T07:12:02;14.83;;;7.60;;
20146;SDS011;10234;50.856;15.716;2022-11-20T07:14:30;11.93;;;7.00;;
20146;SDS011;10234;50.856;15.716;2022-11-20T07:16:58;15.57;;;7.40;;
20146;SDS011;10234;50.856;15.716;2022-11-20T07:19:25;15.40;;;7.50;;
20146;SDS011;10234;50.856;15.716;2022-11-20T07:21:52;13.30;;;6.87;;
20146;SDS011;10234;50.856;15.716;2022-11-20T07:24:19;12.63;;;6.80;;
20146;SDS011;10234;50.856;15.716;2022-11-20T07:26:47;14.70;;;7.77;;
20146;SDS011;10234;50.856;15.716;2022-11-20T07:29:14;12.93;;;7.47;;
20146;SDS011;10234;50.856;15.716;2022-11-20T07:31:41;16.95;;;8.75;;
20146;SDS011;10234;50.856;15.716;2022-11-20T07:34:12;23.48;;;10.93;;
20146;SDS011;10234;50.856;15.716;2022-11-20T07:36:39;25.70;;;13.40;;
20146;SDS011;10234;50.856;15.716;2022-11-20T07:39:06;29.23;;;17.00;;
20146;SDS011;10234;50.856;15.716;2022-11-20T07:41:33;32.78;;;19.83;;
20146;SDS011;10234;50.856;15.716;2022-11-20T07:44:00;39.83;;;21.30;;
20146;SDS011;10234;50.856;15.716;2022-11-20T07:46:27;40.67;;;23.05;;
20146;SDS011;10234;50.856;15.716;2022-11-20T07:48:55;43.95;;;22.83;;
20146;SDS011;10234;50.856;15.716;2022-11-20T07:51:23;37.83;;;21.83;;
20146;SDS011;10234;50.856;15.716;2022-11-20T07:53:50;42.10;;;23.20;;
20146;SDS011;10234;50.856;15.716;2022-11-20T07:56:18;42.08;;;23.92;;
20146;SDS011;10234;50.856;15.716;2022-11-20T07:58:45;54.63;;;29.42;;
20146;SDS011;10234;50.856;15.716;2022-11-20T08:01:12;43.75;;;25.27;;
20146;SDS011;10234;50.856;15.716;2022-11-20T08:03:41;36.20;;;22.05;;
20146;SDS011;10234;50.856;15.716;2022-11-20T08:06:08;36.35;;;21.40;;
20146;SDS011;10234;50.856;15.716;2022-11-20T08:08:36;34.85;;;21.55;;
20146;SDS011;10234;50.856;15.716;2022-11-20T08:11:04;45.70;;;24.83;;
20146;SDS011;10234;50.856;15.716;2022-11-20T08:13:49;45.13;;;25.83;;
20146;SDS011;10234;50.856;15.716;2022-11-20T08:16:33;26.35;;;18.02;;
20146;SDS011;10234;50.856;15.716;2022-11-20T08:19:00;31.10;;;18.58;;
20146;SDS011;10234;50.856;15.716;2022-11-20T08:21:27;23.65;;;15.15;;
20146;SDS011;10234;50.856;15.716;2022-11-20T08:23:56;26.10;;;17.58;;
20146;SDS011;10234;50.856;15.716;2022-11-20T08:26:23;26.00;;;16.20;;
20146;SDS011;10234;50.856;15.716;2022-11-20T08:28:52;26.92;;;15.23;;
20146;SDS011;10234;50.856;15.716;2022-11-20T08:31:20;23.05;;;14.95;;
20146;SDS011;10234;50.856;15.716;2022-11-20T08:33:47;27.92;;;16.13;;
20146;SDS011;10234;50.856;15.716;2022-11-20T08:36:14;24.98;;;18.15;;
20146;SDS011;10234;50.856;15.716;2022-11-20T08:38:41;34.95;;;24.15;;
20146;SDS011;10234;50.856;15.716;2022-11-20T08:41:10;22.40;;;13.73;;
20146;SDS011;10234;50.856;15.716;2022-11-20T08:43:51;14.48;;;9.55;;
20146;SDS011;10234;50.856;15.716;2022-11-20T08:46:18;11.93;;;8.68;;
20146;SDS011;10234;50.856;15.716;2022-11-20T08:48:46;13.00;;;8.88;;
20146;SDS011;10234;50.856;15.716;2022-11-20T08:51:13;12.60;;;8.65;;
20146;SDS011;10234;50.856;15.716;2022-11-20T08:53:40;12.20;;;9.55;;
20146;SDS011;10234;50.856;15.716;2022-11-20T08:56:07;19.92;;;13.43;;
20146;SDS011;10234;50.856;15.716;2022-11-20T08:58:36;14.25;;;10.07;;
20146;SDS011;10234;50.856;15.716;2022-11-20T09:01:03;13.73;;;9.57;;
20146;SDS011;10234;50.856;15.716;2022-11-20T09:03:30;16.92;;;10.88;;
20146;SDS011;10234;50.856;15.716;2022-11-20T09:05:58;14.68;;;9.73;;
20146;SDS011;10234;50.856;15.716;2022-11-20T09:08:26;18.33;;;11.65;;
20146;SDS011;10234;50.856;15.716;2022-11-20T09:10:53;16.27;;;10.32;;
20146;SDS011;10234;50.856;15.716;2022-11-20T09:13:21;15.18;;;9.82;;
20146;SDS011;10234;50.856;15.716;2022-11-20T09:15:53;14.82;;;10.13;;
20146;SDS011;10234;50.856;15.716;2022-11-20T09:18:21;13.73;;;8.50;;
20146;SDS011;10234;50.856;15.716;2022-11-20T09:20:48;11.75;;;8.20;;
20146;SDS011;10234;50.856;15.716;2022-11-20T09:23:16;11.60;;;7.72;;
20146;SDS011;10234;50.856;15.716;2022-11-20T09:25:43;11.23;;;8.02;;
20146;SDS011;10234;50.856;15.716;2022-11-20T09:28:10;10.15;;;7.75;;
20146;SDS011;10234;50.856;15.716;2022-11-20T09:30:37;11.93;;;7.95;;
20146;SDS011;10234;50.856;15.716;2022-11-20T09:33:06;12.52;;;8.45;;
20146;SDS011;10234;50.856;15.716;2022-11-20T09:35:32;23.23;;;16.35;;
20146;SDS011;10234;50.856;15.716;2022-11-20T09:38:04;31.23;;;20.65;;
20146;SDS011;10234;50.856;15.716;2022-11-20T09:40:31;26.35;;;19.52;;
20146;SDS011;10234;50.856;15.716;2022-11-20T09:42:59;32.03;;;22.05;;
20146;SDS011;10234;50.856;15.716;2022-11-20T09:45:43;27.50;;;18.55;;
20146;SDS011;10234;50.856;15.716;2022-11-20T09:48:24;20.10;;;13.00;;
20146;SDS011;10234;50.856;15.716;2022-11-20T09:51:02;17.25;;;12.02;;
20146;SDS011;10234;50.856;15.716;2022-11-20T09:53:37;20.23;;;12.00;;
20146;SDS011;10234;50.856;15.716;2022-11-20T09:56:14;14.63;;;10.25;;
20146;SDS011;10234;50.856;15.716;2022-11-20T09:58:44;10.63;;;8.07;;
20146;SDS011;10234;50.856;15.716;2022-11-20T10:01:14;10.80;;;7.63;;
20146;SDS011;10234;50.856;15.716;2022-11-20T10:03:48;11.35;;;7.75;;
20146;SDS011;10234;50.856;15.716;2022-11-20T10:06:21;10.70;;;8.35;;
20146;SDS011;10234;50.856;15.716;2022-11-20T10:08:55;9.95;;;7.95;;
20146;SDS011;10234;50.856;15.716;2022-11-20T10:11:29;11.80;;;8.50;;
20146;SDS011;10234;50.856;15.716;2022-11-20T10:14:07;14.25;;;8.43;;
20146;SDS011;10234;50.856;15.716;2022-11-20T10:16:46;13.02;;;8.60;;
20146;SDS011;10234;50.856;15.716;2022-11-20T10:19:26;14.30;;;9.13;;
20146;SDS011;10234;50.856;15.716;2022-11-20T10:22:06;12.98;;;9.35;;
20146;SDS011;10234;50.856;15.716;2022-11-20T10:24:44;14.10;;;9.55;;
20146;SDS011;10234;50.856;15.716;2022-11-20T10:27:36;15.13;;;8.85;;
20146;SDS011;10234;50.856;15.716;2022-11-20T10:30:09;14.13;;;9.65;;
20146;SDS011;10234;50.856;15.716;2022-11-20T10:32:38;16.80;;;10.80;;
20146;SDS011;10234;50.856;15.716;2022-11-20T10:35:10;14.95;;;10.10;;
20146;SDS011;10234;50.856;15.716;2022-11-20T10:37:44;15.57;;;10.00;;
20146;SDS011;10234;50.856;15.716;2022-11-20T10:40:18;15.02;;;9.45;;
20146;SDS011;10234;50.856;15.716;2022-11-20T10:42:51;13.50;;;9.48;;
20146;SDS011;10234;50.856;15.716;2022-11-20T10:45:28;17.08;;;12.10;;
20146;SDS011;10234;50.856;15.716;2022-11-20T10:48:07;14.35;;;10.48;;
20146;SDS011;10234;50.856;15.716;2022-11-20T10:50:44;13.60;;;9.35;;
20146;SDS011;10234;50.856;15.716;2022-11-20T10:53:24;11.70;;;8.98;;
20146;SDS011;10234;50.856;15.716;2022-11-20T10:56:09;12.43;;;8.38;;
20146;SDS011;10234;50.856;15.716;2022-11-20T10:58:43;10.13;;;7.53;;
20146;SDS011;10234;50.856;15.716;2022-11-20T11:01:18;9.82;;;7.00;;
20146;SDS011;10234;50.856;15.716;2022-11-20T11:03:48;8.80;;;6.68;;
20146;SDS011;10234;50.856;15.716;2022-11-20T11:06:19;9.98;;;7.15;;
20146;SDS011;10234;50.856;15.716;2022-11-20T11:08:51;9.88;;;7.10;;
20146;SDS011;10234;50.856;15.716;2022-11-20T11:11:22;9.43;;;7.15;;
20146;SDS011;10234;50.856;15.716;2022-11-20T11:13:50;9.73;;;7.30;;
20146;SDS011;10234;50.856;15.716;2022-11-20T11:16:22;11.93;;;8.85;;
20146;SDS011;10234;50.856;15.716;2022-11-20T11:18:50;12.27;;;8.50;;
20146;SDS011;10234;50.856;15.716;2022-11-20T11:21:22;14.82;;;10.15;;
20146;SDS011;10234;50.856;15.716;2022-11-20T11:23:57;12.50;;;8.93;;
20146;SDS011;10234;50.856;15.716;2022-11-20T11:26:25;14.45;;;9.68;;
20146;SDS011;10234;50.856;15.716;2022-11-20T11:28:53;18.05;;;11.60;;
20146;SDS011;10234;50.856;15.716;2022-11-20T11:31:23;22.67;;;15.00;;
20146;SDS011;10234;50.856;15.716;2022-11-20T11:33:52;26.00;;;15.85;;
20146;SDS011;10234;50.856;15.716;2022-11-20T11:36:19;21.67;;;14.40;;
20146;SDS011;10234;50.856;15.716;2022-11-20T11:38:50;31.08;;;16.15;;
20146;SDS011;10234;50.856;15.716;2022-11-20T11:41:20;21.92;;;14.32;;
20146;SDS011;10234;50.856;15.716;2022-11-20T11:43:52;23.63;;;14.95;;
20146;SDS011;10234;50.856;15.716;2022-11-20T11:46:38;24.45;;;14.70;;
20146;SDS011;10234;50.856;15.716;2022-11-20T11:49:14;24.45;;;15.23;;
20146;SDS011;10234;50.856;15.716;2022-11-20T11:51:47;24.00;;;14.90;;
20146;SDS011;10234;50.856;15.716;2022-11-20T11:54:25;18.60;;;12.35;;
20146;SDS011;10234;50.856;15.716;2022-11-20T11:56:58;18.85;;;12.77;;
20146;SDS011;10234;50.856;15.716;2022-11-20T11:59:28;18.83;;;13.10;;
20146;SDS011;10234;50.856;15.716;2022-11-20T12:02:11;12.85;;;8.32;;
20146;SDS011;10234;50.856;15.716;2022-11-20T12:04:50;13.48;;;9.40;;
20146;SDS011;10234;50.856;15.716;2022-11-20T12:07:25;10.82;;;8.02;;
20146;SDS011;10234;50.856;15.716;2022-11-20T12:10:04;14.70;;;9.13;;
20146;SDS011;10234;50.856;15.716;2022-11-20T12:12:31;15.40;;;9.00;;
20146;SDS011;10234;50.856;15.716;2022-11-20T12:15:02;11.15;;;7.43;;
20146;SDS011;10234;50.856;15.716;2022-11-20T12:17:35;14.45;;;9.75;;
20146;SDS011;10234;50.856;15.716;2022-11-20T12:20:05;20.17;;;12.88;;
20146;SDS011;10234;50.856;15.716;2022-11-20T12:22:40;23.75;;;14.25;;
20146;SDS011;10234;50.856;15.716;2022-11-20T12:25:17;19.00;;;12.13;;
20146;SDS011;10234;50.856;15.716;2022-11-20T12:27:54;19.13;;;15.20;;
20146;SDS011;10234;50.856;15.716;2022-11-20T12:30:41;16.98;;;11.43;;
20146;SDS011;10234;50.856;15.716;2022-11-20T12:33:24;11.00;;;9.02;;
20146;SDS011;10234;50.856;15.716;2022-11-20T12:36:13;15.63;;;10.38;;
20146;SDS011;10234;50.856;15.716;2022-11-20T12:39:00;20.83;;;12.05;;
20146;SDS011;10234;50.856;15.716;2022-11-20T12:41:49;16.15;;;10.73;;
20146;SDS011;10234;50.856;15.716;2022-11-20T12:44:52;15.65;;;10.77;;
20146;SDS011;10234;50.856;15.716;2022-11-20T12:47:48;16.90;;;10.98;;
20146;SDS011;10234;50.856;15.716;2022-11-20T12:50:28;19.52;;;11.68;;
20146;SDS011;10234;50.856;15.716;2022-11-20T12:53:04;16.90;;;11.68;;
20146;SDS011;10234;50.856;15.716;2022-11-20T12:55:38;21.42;;;13.80;;
20146;SDS011;10234;50.856;15.716;2022-11-20T12:58:16;19.75;;;11.57;;
20146;SDS011;10234;50.856;15.716;2022-11-20T13:00:51;15.90;;;10.70;;
20146;SDS011;10234;50.856;15.716;2022-11-20T13:06:15;18.65;;;10.73;;
20146;SDS011;10234;50.856;15.716;2022-11-20T13:08:43;15.45;;;9.50;;
20146;SDS011;10234;50.856;15.716;2022-11-20T13:11:18;12.80;;;7.70;;
20146;SDS011;10234;50.856;15.716;2022-11-20T13:16:44;16.17;;;11.23;;
20146;SDS011;10234;50.856;15.716;2022-11-20T13:19:17;18.98;;;12.70;;
20146;SDS011;10234;50.856;15.716;2022-11-20T13:21:45;15.70;;;10.02;;
20146;SDS011;10234;50.856;15.716;2022-11-20T13:24:21;38.80;;;18.80;;
20146;SDS011;10234;50.856;15.716;2022-11-20T13:27:04;30.15;;;14.23;;
20146;SDS011;10234;50.856;15.716;2022-11-20T13:29:44;37.65;;;19.10;;
20146;SDS011;10234;50.856;15.716;2022-11-20T13:32:13;11.40;;;7.10;;
20146;SDS011;10234;50.856;15.716;2022-11-20T13:34:50;17.48;;;9.35;;
20146;SDS011;10234;50.856;15.716;2022-11-20T13:37:24;16.83;;;8.93;;
20146;SDS011;10234;50.856;15.716;2022-11-20T13:39:53;32.42;;;15.57;;
20146;SDS011;10234;50.856;15.716;2022-11-20T13:42:34;10.05;;;6.82;;
20146;SDS011;10234;50.856;15.716;2022-11-20T13:45:08;27.88;;;14.65;;
20146;SDS011;10234;50.856;15.716;2022-11-20T13:47:36;31.50;;;15.48;;
20146;SDS011;10234;50.856;15.716;2022-11-20T13:50:04;156.90;;;68.35;;
20146;SDS011;10234;50.856;15.716;2022-11-20T13:52:42;42.40;;;22.48;;
20146;SDS011;10234;50.856;15.716;2022-11-20T13:55:18;30.58;;;17.60;;
20146;SDS011;10234;50.856;15.716;2022-11-20T13:57:59;26.55;;;13.85;;
20146;SDS011;10234;50.856;15.716;2022-11-20T14:00:33;27.08;;;15.02;;
20146;SDS011;10234;50.856;15.716;2022-11-20T14:03:13;15.05;;;9.52;;
20146;SDS011;10234;50.856;15.716;2022-11-20T14:05:47;12.23;;;7.57;;
20146;SDS011;10234;50.856;15.716;2022-11-20T14:08:21;25.77;;;14.13;;
20146;SDS011;10234;50.856;15.716;2022-11-20T14:11:02;25.20;;;13.43;;
20146;SDS011;10234;50.856;15.716;2022-11-20T14:13:30;13.35;;;7.93;;
20146;SDS011;10234;50.856;15.716;2022-11-20T14:15:57;15.00;;;8.68;;
20146;SDS011;10234;50.856;15.716;2022-11-20T14:18:25;13.68;;;8.18;;
20146;SDS011;10234;50.856;15.716;2022-11-20T14:20:53;16.30;;;9.07;;
20146;SDS011;10234;50.856;15.716;2022-11-20T14:23:23;21.85;;;11.80;;
20146;SDS011;10234;50.856;15.716;2022-11-20T14:25:51;18.70;;;10.07;;
20146;SDS011;10234;50.856;15.716;2022-11-20T14:28:20;13.30;;;8.05;;
20146;SDS011;10234;50.856;15.716;2022-11-20T14:30:53;14.57;;;9.18;;
20146;SDS011;10234;50.856;15.716;2022-11-20T14:33:21;11.60;;;7.88;;
20146;SDS011;10234;50.856;15.716;2022-11-20T14:35:50;11.55;;;7.28;;
20146;SDS011;10234;50.856;15.716;2022-11-20T14:38:20;15.10;;;9.13;;
20146;SDS011;10234;50.856;15.716;2022-11-20T14:40:50;22.02;;;13.82;;
20146;SDS011;10234;50.856;15.716;2022-11-20T14:43:19;13.98;;;8.93;;